sensor_id;sensor_type;location;lat;lon;timestamp;P1;durP1;ratioP1;P2;durP2;ratioP2
29662;SDS011;16578;53.266;7.920;2023-01-24T00:01:40;23.00;;;15.75;;
29662;SDS011;16578;53.266;7.920;2023-01-24T00:04:06;25.80;;;17.83;;
29662;SDS011;16578;53.266;7.920;2023-01-24T00:06:31;23.70;;;16.65;;
29662;SDS011;16578;53.266;7.920;2023-01-24T00:08:57;28.25;;;17.75;;
29662;SDS011;16578;53.266;7.920;2023-01-24T00:11:23;24.73;;;17.23;;
29662;SDS011;16578;53.266;7.920;2023-01-24T00:13:48;22.48;;;16.63;;
29662;SDS011;16578;53.266;7.920;2023-01-24T00:16:15;23.40;;;16.98;;
29662;SDS011;16578;53.266;7.920;2023-01-24T00:18:45;25.38;;;17.45;;
29662;SDS011;16578;53.266;7.920;2023-01-24T00:21:12;23.17;;;16.40;;
29662;SDS011;16578;53.266;7.920;2023-01-24T00:23:43;25.73;;;17.02;;
29662;SDS011;16578;53.266;7.920;2023-01-24T00:26:11;25.98;;;16.73;;
29662;SDS011;16578;53.266;7.920;2023-01-24T00:28:37;21.70;;;15.35;;
29662;SDS011;16578;53.266;7.920;2023-01-24T00:31:03;21.20;;;15.13;;
29662;SDS011;16578;53.266;7.920;2023-01-24T00:33:29;23.10;;;15.18;;
29662;SDS011;16578;53.266;7.920;2023-01-24T00:35:55;22.67;;;16.30;;
29662;SDS011;16578;53.266;7.920;2023-01-24T00:38:21;22.10;;;16.45;;
29662;SDS011;16578;53.266;7.920;2023-01-24T00:40:47;23.08;;;16.58;;
29662;SDS011;16578;53.266;7.920;2023-01-24T00:43:12;22.00;;;15.63;;
29662;SDS011;16578;53.266;7.920;2023-01-24T00:45:38;21.88;;;16.48;;
29662;SDS011;16578;53.266;7.920;2023-01-24T00:48:04;24.40;;;16.20;;
29662;SDS011;16578;53.266;7.920;2023-01-24T00:50:31;20.77;;;16.90;;
29662;SDS011;16578;53.266;7.920;2023-01-24T00:52:57;24.88;;;16.75;;
29662;SDS011;16578;53.266;7.920;2023-01-24T00:55:23;23.08;;;16.40;;
29662;SDS011;16578;53.266;7.920;2023-01-24T00:57:48;24.13;;;17.55;;
29662;SDS011;16578;53.266;7.920;2023-01-24T01:00:14;23.88;;;17.02;;
29662;SDS011;16578;53.266;7.920;2023-01-24T01:02:40;23.55;;;16.60;;
29662;SDS011;16578;53.266;7.920;2023-01-24T01:05:05;25.13;;;17.10;;
29662;SDS011;16578;53.266;7.920;2023-01-24T01:07:31;24.13;;;16.52;;
29662;SDS011;16578;53.266;7.920;2023-01-24T01:09:57;23.40;;;15.52;;
29662;SDS011;16578;53.266;7.920;2023-01-24T01:12:23;23.85;;;15.70;;
29662;SDS011;16578;53.266;7.920;2023-01-24T01:14:48;22.73;;;15.68;;
29662;SDS011;16578;53.266;7.920;2023-01-24T01:17:14;23.85;;;15.65;;
29662;SDS011;16578;53.266;7.920;2023-01-24T01:19:40;24.05;;;16.33;;
29662;SDS011;16578;53.266;7.920;2023-01-24T01:22:05;21.73;;;16.10;;
29662;SDS011;16578;53.266;7.920;2023-01-24T01:24:31;24.40;;;15.90;;
29662;SDS011;16578;53.266;7.920;2023-01-24T01:26:57;20.60;;;15.68;;
29662;SDS011;16578;53.266;7.920;2023-01-24T01:29:22;24.45;;;17.27;;
29662;SDS011;16578;53.266;7.920;2023-01-24T01:31:48;26.38;;;17.05;;
29662;SDS011;16578;53.266;7.920;2023-01-24T01:34:13;23.40;;;17.05;;
29662;SDS011;16578;53.266;7.920;2023-01-24T01:36:39;26.38;;;17.23;;
29662;SDS011;16578;53.266;7.920;2023-01-24T01:39:05;23.98;;;16.63;;
29662;SDS011;16578;53.266;7.920;2023-01-24T01:41:30;21.63;;;15.82;;
29662;SDS011;16578;53.266;7.920;2023-01-24T01:43:56;24.73;;;16.88;;
29662;SDS011;16578;53.266;7.920;2023-01-24T01:46:44;23.48;;;16.10;;
29662;SDS011;16578;53.266;7.920;2023-01-24T01:49:19;24.08;;;16.10;;
29662;SDS011;16578;53.266;7.920;2023-01-24T01:51:49;22.63;;;16.17;;
29662;SDS011;16578;53.266;7.920;2023-01-24T01:54:20;23.23;;;17.08;;
29662;SDS011;16578;53.266;7.920;2023-01-24T01:56:54;21.63;;;15.00;;
29662;SDS011;16578;53.266;7.920;2023-01-24T01:59:24;26.80;;;16.90;;
29662;SDS011;16578;53.266;7.920;2023-01-24T02:01:55;22.67;;;14.70;;
29662;SDS011;16578;53.266;7.920;2023-01-24T02:04:24;22.45;;;15.98;;
29662;SDS011;16578;53.266;7.920;2023-01-24T02:06:57;23.38;;;15.23;;
29662;SDS011;16578;53.266;7.920;2023-01-24T02:09:28;22.50;;;16.15;;
29662;SDS011;16578;53.266;7.920;2023-01-24T02:12:11;25.00;;;16.77;;
29662;SDS011;16578;53.266;7.920;2023-01-24T02:14:50;25.73;;;16.77;;
29662;SDS011;16578;53.266;7.920;2023-01-24T02:17:37;23.48;;;16.15;;
29662;SDS011;16578;53.266;7.920;2023-01-24T02:25:30;20.77;;;15.65;;
29662;SDS011;16578;53.266;7.920;2023-01-24T02:28:06;23.95;;;16.13;;
29662;SDS011;16578;53.266;7.920;2023-01-24T02:30:34;22.10;;;16.48;;
29662;SDS011;16578;53.266;7.920;2023-01-24T02:33:22;22.30;;;15.52;;
29662;SDS011;16578;53.266;7.920;2023-01-24T02:35:47;22.13;;;15.45;;
29662;SDS011;16578;53.266;7.920;2023-01-24T02:38:22;21.60;;;14.90;;
29662;SDS011;16578;53.266;7.920;2023-01-24T02:40:53;22.40;;;15.48;;
29662;SDS011;16578;53.266;7.920;2023-01-24T02:43:22;23.35;;;17.90;;
29662;SDS011;16578;53.266;7.920;2023-01-24T02:45:50;23.83;;;17.65;;
29662;SDS011;16578;53.266;7.920;2023-01-24T02:48:16;25.75;;;17.58;;
29662;SDS011;16578;53.266;7.920;2023-01-24T02:50:41;23.27;;;16.90;;
29662;SDS011;16578;53.266;7.920;2023-01-24T02:53:26;20.98;;;15.45;;
29662;SDS011;16578;53.266;7.920;2023-01-24T02:55:54;23.77;;;15.90;;
29662;SDS011;16578;53.266;7.920;2023-01-24T02:58:38;27.20;;;16.25;;
29662;SDS011;16578;53.266;7.920;2023-01-24T03:01:04;24.23;;;15.70;;
29662;SDS011;16578;53.266;7.920;2023-01-24T03:03:29;24.40;;;16.13;;
29662;SDS011;16578;53.266;7.920;2023-01-24T03:05:55;24.77;;;16.13;;
29662;SDS011;16578;53.266;7.920;2023-01-24T03:08:27;24.25;;;17.05;;
29662;SDS011;16578;53.266;7.920;2023-01-24T03:10:54;24.20;;;16.73;;
29662;SDS011;16578;53.266;7.920;2023-01-24T03:13:21;21.50;;;15.75;;
29662;SDS011;16578;53.266;7.920;2023-01-24T03:16:06;23.15;;;16.25;;
29662;SDS011;16578;53.266;7.920;2023-01-24T03:18:51;21.95;;;16.30;;
29662;SDS011;16578;53.266;7.920;2023-01-24T03:21:36;22.60;;;15.65;;
29662;SDS011;16578;53.266;7.920;2023-01-24T03:24:20;21.83;;;15.13;;
29662;SDS011;16578;53.266;7.920;2023-01-24T03:27:04;31.02;;;16.25;;
29662;SDS011;16578;53.266;7.920;2023-01-24T03:29:49;24.40;;;16.63;;
29662;SDS011;16578;53.266;7.920;2023-01-24T03:32:34;24.75;;;16.75;;
29662;SDS011;16578;53.266;7.920;2023-01-24T03:35:18;24.52;;;16.95;;
29662;SDS011;16578;53.266;7.920;2023-01-24T03:37:44;24.80;;;17.85;;
29662;SDS011;16578;53.266;7.920;2023-01-24T03:40:28;19.20;;;15.27;;
29662;SDS011;16578;53.266;7.920;2023-01-24T03:42:54;23.02;;;16.33;;
29662;SDS011;16578;53.266;7.920;2023-01-24T03:45:21;23.25;;;17.00;;
29662;SDS011;16578;53.266;7.920;2023-01-24T03:47:52;25.27;;;17.20;;
29662;SDS011;16578;53.266;7.920;2023-01-24T03:50:22;24.85;;;17.70;;
29662;SDS011;16578;53.266;7.920;2023-01-24T03:53:08;22.83;;;17.10;;
29662;SDS011;16578;53.266;7.920;2023-01-24T03:55:34;23.33;;;16.95;;
29662;SDS011;16578;53.266;7.920;2023-01-24T03:58:00;24.92;;;17.75;;
29662;SDS011;16578;53.266;7.920;2023-01-24T04:00:27;23.00;;;16.80;;
29662;SDS011;16578;53.266;7.920;2023-01-24T04:02:53;20.98;;;16.52;;
29662;SDS011;16578;53.266;7.920;2023-01-24T04:05:19;20.38;;;15.73;;
29662;SDS011;16578;53.266;7.920;2023-01-24T04:07:45;19.50;;;15.52;;
29662;SDS011;16578;53.266;7.920;2023-01-24T04:10:12;21.83;;;15.07;;
29662;SDS011;16578;53.266;7.920;2023-01-24T04:12:39;21.23;;;15.70;;
29662;SDS011;16578;53.266;7.920;2023-01-24T04:15:05;20.35;;;14.95;;
29662;SDS011;16578;53.266;7.920;2023-01-24T04:17:31;17.75;;;13.13;;
29662;SDS011;16578;53.266;7.920;2023-01-24T04:19:56;16.50;;;12.07;;
29662;SDS011;16578;53.266;7.920;2023-01-24T04:22:22;14.90;;;11.40;;
29662;SDS011;16578;53.266;7.920;2023-01-24T04:24:48;14.65;;;11.88;;
29662;SDS011;16578;53.266;7.920;2023-01-24T04:27:13;17.52;;;12.45;;
29662;SDS011;16578;53.266;7.920;2023-01-24T04:29:39;15.05;;;9.98;;
29662;SDS011;16578;53.266;7.920;2023-01-24T04:32:05;14.10;;;11.13;;
29662;SDS011;16578;53.266;7.920;2023-01-24T04:34:31;14.32;;;11.82;;
29662;SDS011;16578;53.266;7.920;2023-01-24T04:36:56;14.95;;;11.40;;
29662;SDS011;16578;53.266;7.920;2023-01-24T04:39:22;14.60;;;11.93;;
29662;SDS011;16578;53.266;7.920;2023-01-24T04:41:47;16.85;;;13.05;;
29662;SDS011;16578;53.266;7.920;2023-01-24T04:44:13;16.50;;;13.38;;
29662;SDS011;16578;53.266;7.920;2023-01-24T04:46:38;18.95;;;14.63;;
29662;SDS011;16578;53.266;7.920;2023-01-24T04:49:04;17.33;;;13.63;;
29662;SDS011;16578;53.266;7.920;2023-01-24T04:51:29;18.15;;;14.10;;
29662;SDS011;16578;53.266;7.920;2023-01-24T04:53:55;17.95;;;13.77;;
29662;SDS011;16578;53.266;7.920;2023-01-24T04:56:20;16.45;;;13.73;;
29662;SDS011;16578;53.266;7.920;2023-01-24T04:58:46;16.45;;;14.43;;
29662;SDS011;16578;53.266;7.920;2023-01-24T05:01:12;16.15;;;13.93;;
29662;SDS011;16578;53.266;7.920;2023-01-24T05:03:37;16.42;;;13.98;;
29662;SDS011;16578;53.266;7.920;2023-01-24T05:06:03;16.45;;;13.00;;
29662;SDS011;16578;53.266;7.920;2023-01-24T05:08:29;14.52;;;12.35;;
29662;SDS011;16578;53.266;7.920;2023-01-24T05:10:54;16.63;;;13.10;;
29662;SDS011;16578;53.266;7.920;2023-01-24T05:13:20;15.80;;;12.98;;
29662;SDS011;16578;53.266;7.920;2023-01-24T05:15:46;16.83;;;12.95;;
29662;SDS011;16578;53.266;7.920;2023-01-24T05:18:15;18.65;;;13.05;;
29662;SDS011;16578;53.266;7.920;2023-01-24T05:20:42;16.80;;;13.52;;
29662;SDS011;16578;53.266;7.920;2023-01-24T05:23:08;16.30;;;13.85;;
29662;SDS011;16578;53.266;7.920;2023-01-24T05:25:34;16.98;;;13.38;;
29662;SDS011;16578;53.266;7.920;2023-01-24T05:27:59;18.33;;;14.40;;
29662;SDS011;16578;53.266;7.920;2023-01-24T05:30:25;18.40;;;14.63;;
29662;SDS011;16578;53.266;7.920;2023-01-24T05:32:54;19.17;;;15.30;;
29662;SDS011;16578;53.266;7.920;2023-01-24T05:35:20;21.10;;;15.68;;
29662;SDS011;16578;53.266;7.920;2023-01-24T05:37:46;21.90;;;17.38;;
29662;SDS011;16578;53.266;7.920;2023-01-24T05:40:11;22.33;;;17.20;;
29662;SDS011;16578;53.266;7.920;2023-01-24T05:42:37;25.83;;;18.25;;
29662;SDS011;16578;53.266;7.920;2023-01-24T05:45:04;23.08;;;17.42;;
29662;SDS011;16578;53.266;7.920;2023-01-24T05:47:30;21.10;;;16.58;;
29662;SDS011;16578;53.266;7.920;2023-01-24T05:49:56;19.33;;;15.38;;
29662;SDS011;16578;53.266;7.920;2023-01-24T05:52:21;17.05;;;14.38;;
29662;SDS011;16578;53.266;7.920;2023-01-24T05:54:47;20.25;;;15.57;;
29662;SDS011;16578;53.266;7.920;2023-01-24T05:57:14;19.60;;;15.60;;
29662;SDS011;16578;53.266;7.920;2023-01-24T05:59:39;21.13;;;16.40;;
29662;SDS011;16578;53.266;7.920;2023-01-24T06:02:05;19.08;;;14.52;;
29662;SDS011;16578;53.266;7.920;2023-01-24T06:04:30;18.27;;;13.93;;
29662;SDS011;16578;53.266;7.920;2023-01-24T06:06:56;18.65;;;13.90;;
29662;SDS011;16578;53.266;7.920;2023-01-24T06:09:22;19.25;;;14.93;;
29662;SDS011;16578;53.266;7.920;2023-01-24T06:11:48;19.02;;;14.20;;
29662;SDS011;16578;53.266;7.920;2023-01-24T06:14:14;18.38;;;14.07;;
29662;SDS011;16578;53.266;7.920;2023-01-24T06:16:39;19.15;;;14.23;;
29662;SDS011;16578;53.266;7.920;2023-01-24T06:19:05;19.00;;;13.60;;
29662;SDS011;16578;53.266;7.920;2023-01-24T06:24:03;17.58;;;13.82;;
29662;SDS011;16578;53.266;7.920;2023-01-24T06:26:30;20.27;;;14.30;;
29662;SDS011;16578;53.266;7.920;2023-01-24T06:28:56;16.88;;;13.68;;
29662;SDS011;16578;53.266;7.920;2023-01-24T06:36:40;18.27;;;14.98;;
29662;SDS011;16578;53.266;7.920;2023-01-24T06:39:18;18.63;;;14.75;;
29662;SDS011;16578;53.266;7.920;2023-01-24T06:41:45;19.08;;;15.63;;
29662;SDS011;16578;53.266;7.920;2023-01-24T06:44:12;19.58;;;14.73;;
29662;SDS011;16578;53.266;7.920;2023-01-24T06:46:38;20.75;;;15.43;;
29662;SDS011;16578;53.266;7.920;2023-01-24T06:49:03;19.52;;;14.38;;
29662;SDS011;16578;53.266;7.920;2023-01-24T06:51:29;19.73;;;14.65;;
29662;SDS011;16578;53.266;7.920;2023-01-24T06:53:54;19.25;;;13.88;;
29662;SDS011;16578;53.266;7.920;2023-01-24T06:56:20;20.50;;;14.52;;
29662;SDS011;16578;53.266;7.920;2023-01-24T06:58:45;18.83;;;13.70;;
29662;SDS011;16578;53.266;7.920;2023-01-24T07:01:12;18.48;;;14.40;;
29662;SDS011;16578;53.266;7.920;2023-01-24T07:03:38;17.45;;;14.18;;
29662;SDS011;16578;53.266;7.920;2023-01-24T07:06:03;19.98;;;15.05;;
29662;SDS011;16578;53.266;7.920;2023-01-24T07:08:29;18.27;;;14.20;;
29662;SDS011;16578;53.266;7.920;2023-01-24T07:10:56;17.73;;;13.18;;
29662;SDS011;16578;53.266;7.920;2023-01-24T07:13:23;18.02;;;14.32;;
29662;SDS011;16578;53.266;7.920;2023-01-24T07:15:49;18.35;;;13.25;;
29662;SDS011;16578;53.266;7.920;2023-01-24T07:18:15;14.90;;;12.57;;
29662;SDS011;16578;53.266;7.920;2023-01-24T07:20:42;16.67;;;13.37;;
29662;SDS011;16578;53.266;7.920;2023-01-24T07:23:26;15.68;;;12.30;;
29662;SDS011;16578;53.266;7.920;2023-01-24T07:25:57;14.60;;;12.25;;
29662;SDS011;16578;53.266;7.920;2023-01-24T07:28:24;16.35;;;13.07;;
29662;SDS011;16578;53.266;7.920;2023-01-24T07:30:51;15.75;;;12.88;;
29662;SDS011;16578;53.266;7.920;2023-01-24T07:33:17;17.23;;;12.17;;
29662;SDS011;16578;53.266;7.920;2023-01-24T07:35:43;16.42;;;12.20;;
29662;SDS011;16578;53.266;7.920;2023-01-24T07:38:08;15.48;;;11.38;;
29662;SDS011;16578;53.266;7.920;2023-01-24T07:40:35;15.20;;;12.30;;
29662;SDS011;16578;53.266;7.920;2023-01-24T07:43:01;16.25;;;12.38;;
29662;SDS011;16578;53.266;7.920;2023-01-24T07:45:27;15.40;;;12.30;;
29662;SDS011;16578;53.266;7.920;2023-01-24T07:47:56;16.08;;;12.23;;
29662;SDS011;16578;53.266;7.920;2023-01-24T07:50:23;18.52;;;12.68;;
29662;SDS011;16578;53.266;7.920;2023-01-24T07:52:52;15.27;;;11.30;;
29662;SDS011;16578;53.266;7.920;2023-01-24T07:55:19;14.68;;;11.77;;
29662;SDS011;16578;53.266;7.920;2023-01-24T07:57:45;16.15;;;12.07;;
29662;SDS011;16578;53.266;7.920;2023-01-24T08:00:11;14.38;;;11.25;;
29662;SDS011;16578;53.266;7.920;2023-01-24T08:02:37;15.52;;;11.85;;
29662;SDS011;16578;53.266;7.920;2023-01-24T08:05:02;15.23;;;12.25;;
29662;SDS011;16578;53.266;7.920;2023-01-24T08:07:28;16.35;;;11.93;;
29662;SDS011;16578;53.266;7.920;2023-01-24T08:09:53;20.42;;;12.48;;
29662;SDS011;16578;53.266;7.920;2023-01-24T08:12:20;15.50;;;12.18;;
29662;SDS011;16578;53.266;7.920;2023-01-24T08:14:46;17.95;;;12.10;;
29662;SDS011;16578;53.266;7.920;2023-01-24T08:17:12;15.50;;;11.82;;
29662;SDS011;16578;53.266;7.920;2023-01-24T08:19:37;19.95;;;13.00;;
29662;SDS011;16578;53.266;7.920;2023-01-24T08:22:04;16.17;;;11.98;;
29662;SDS011;16578;53.266;7.920;2023-01-24T08:24:30;17.15;;;13.50;;
29662;SDS011;16578;53.266;7.920;2023-01-24T08:26:55;18.38;;;12.52;;
29662;SDS011;16578;53.266;7.920;2023-01-24T08:29:21;17.27;;;12.85;;
29662;SDS011;16578;53.266;7.920;2023-01-24T08:31:46;17.42;;;12.93;;
29662;SDS011;16578;53.266;7.920;2023-01-24T08:34:13;16.33;;;12.68;;
29662;SDS011;16578;53.266;7.920;2023-01-24T08:36:39;19.48;;;13.18;;
29662;SDS011;16578;53.266;7.920;2023-01-24T08:39:05;16.98;;;13.40;;
29662;SDS011;16578;53.266;7.920;2023-01-24T08:41:30;19.30;;;13.82;;
29662;SDS011;16578;53.266;7.920;2023-01-24T08:43:56;18.17;;;13.02;;
29662;SDS011;16578;53.266;7.920;2023-01-24T08:46:21;18.80;;;13.73;;
29662;SDS011;16578;53.266;7.920;2023-01-24T08:48:47;18.00;;;13.98;;
29662;SDS011;16578;53.266;7.920;2023-01-24T08:51:13;17.80;;;13.60;;
29662;SDS011;16578;53.266;7.920;2023-01-24T08:53:38;17.27;;;12.82;;
29662;SDS011;16578;53.266;7.920;2023-01-24T08:56:04;17.98;;;14.07;;
29662;SDS011;16578;53.266;7.920;2023-01-24T08:58:31;19.10;;;13.98;;
29662;SDS011;16578;53.266;7.920;2023-01-24T09:00:58;17.92;;;13.45;;
29662;SDS011;16578;53.266;7.920;2023-01-24T09:03:24;16.83;;;13.48;;
29662;SDS011;16578;53.266;7.920;2023-01-24T09:05:55;15.82;;;12.57;;
29662;SDS011;16578;53.266;7.920;2023-01-24T09:08:22;16.98;;;12.68;;
29662;SDS011;16578;53.266;7.920;2023-01-24T09:10:48;18.25;;;13.27;;
29662;SDS011;16578;53.266;7.920;2023-01-24T09:13:13;17.27;;;13.32;;
29662;SDS011;16578;53.266;7.920;2023-01-24T09:15:39;16.17;;;12.70;;
29662;SDS011;16578;53.266;7.920;2023-01-24T09:18:04;16.25;;;12.60;;
29662;SDS011;16578;53.266;7.920;2023-01-24T09:20:30;16.05;;;12.02;;
29662;SDS011;16578;53.266;7.920;2023-01-24T09:22:55;17.42;;;13.30;;
29662;SDS011;16578;53.266;7.920;2023-01-24T09:25:21;17.95;;;13.20;;
29662;SDS011;16578;53.266;7.920;2023-01-24T09:27:53;20.35;;;13.82;;
29662;SDS011;16578;53.266;7.920;2023-01-24T09:30:20;17.67;;;13.80;;
29662;SDS011;16578;53.266;7.920;2023-01-24T09:32:47;18.38;;;13.90;;
29662;SDS011;16578;53.266;7.920;2023-01-24T09:35:13;20.30;;;14.05;;
29662;SDS011;16578;53.266;7.920;2023-01-24T09:37:39;18.48;;;13.68;;
29662;SDS011;16578;53.266;7.920;2023-01-24T09:40:20;19.85;;;13.65;;
29662;SDS011;16578;53.266;7.920;2023-01-24T09:42:55;18.08;;;13.00;;
29662;SDS011;16578;53.266;7.920;2023-01-24T09:48:02;17.63;;;12.93;;
29662;SDS011;16578;53.266;7.920;2023-01-24T09:53:08;18.02;;;12.32;;
29662;SDS011;16578;53.266;7.920;2023-01-24T09:55:44;20.48;;;14.93;;
29662;SDS011;16578;53.266;7.920;2023-01-24T09:58:22;18.33;;;13.35;;
29662;SDS011;16578;53.266;7.920;2023-01-24T10:01:00;18.30;;;13.05;;
29662;SDS011;16578;53.266;7.920;2023-01-24T10:03:33;18.73;;;13.40;;
29662;SDS011;16578;53.266;7.920;2023-01-24T10:06:00;18.48;;;13.45;;
29662;SDS011;16578;53.266;7.920;2023-01-24T10:08:34;19.45;;;13.32;;
29662;SDS011;16578;53.266;7.920;2023-01-24T10:16:23;17.98;;;13.27;;
29662;SDS011;16578;53.266;7.920;2023-01-24T10:27:56;23.42;;;15.55;;
29662;SDS011;16578;53.266;7.920;2023-01-24T10:30:39;21.38;;;14.32;;
29662;SDS011;16578;53.266;7.920;2023-01-24T10:33:14;22.80;;;14.25;;
29662;SDS011;16578;53.266;7.920;2023-01-24T10:35:56;18.50;;;13.70;;
29662;SDS011;16578;53.266;7.920;2023-01-24T10:38:24;21.63;;;14.20;;
29662;SDS011;16578;53.266;7.920;2023-01-24T10:40:52;18.83;;;13.57;;
29662;SDS011;16578;53.266;7.920;2023-01-24T10:43:24;19.52;;;14.80;;
29662;SDS011;16578;53.266;7.920;2023-01-24T10:48:27;21.75;;;15.68;;
29662;SDS011;16578;53.266;7.920;2023-01-24T10:51:14;18.35;;;14.48;;
29662;SDS011;16578;53.266;7.920;2023-01-24T10:53:41;22.25;;;15.82;;
29662;SDS011;16578;53.266;7.920;2023-01-24T10:56:08;20.95;;;15.40;;
29662;SDS011;16578;53.266;7.920;2023-01-24T11:01:33;20.02;;;15.35;;
29662;SDS011;16578;53.266;7.920;2023-01-24T11:04:22;20.75;;;15.05;;
29662;SDS011;16578;53.266;7.920;2023-01-24T11:06:51;17.98;;;13.65;;
29662;SDS011;16578;53.266;7.920;2023-01-24T11:09:18;19.92;;;14.85;;
29662;SDS011;16578;53.266;7.920;2023-01-24T11:14:13;17.17;;;13.27;;
29662;SDS011;16578;53.266;7.920;2023-01-24T11:16:42;18.27;;;13.55;;
29662;SDS011;16578;53.266;7.920;2023-01-24T11:21:55;17.75;;;13.00;;
29662;SDS011;16578;53.266;7.920;2023-01-24T11:24:22;17.92;;;13.73;;
29662;SDS011;16578;53.266;7.920;2023-01-24T11:29:28;17.95;;;14.15;;
29662;SDS011;16578;53.266;7.920;2023-01-24T11:31:56;18.05;;;14.20;;
29662;SDS011;16578;53.266;7.920;2023-01-24T11:34:49;20.38;;;14.38;;
29662;SDS011;16578;53.266;7.920;2023-01-24T11:48:26;18.90;;;14.30;;
29662;SDS011;16578;53.266;7.920;2023-01-24T11:53:32;19.45;;;14.50;;
29662;SDS011;16578;53.266;7.920;2023-01-24T11:59:06;20.60;;;14.95;;
29662;SDS011;16578;53.266;7.920;2023-01-24T12:04:44;22.33;;;15.65;;
29662;SDS011;16578;53.266;7.920;2023-01-24T12:07:29;19.60;;;15.50;;
29662;SDS011;16578;53.266;7.920;2023-01-24T12:12:28;21.10;;;16.02;;
29662;SDS011;16578;53.266;7.920;2023-01-24T12:17:43;21.73;;;15.75;;
29662;SDS011;16578;53.266;7.920;2023-01-24T12:20:29;21.48;;;15.95;;
29662;SDS011;16578;53.266;7.920;2023-01-24T12:26:14;20.52;;;15.73;;
29662;SDS011;16578;53.266;7.920;2023-01-24T12:29:03;21.33;;;15.45;;
29662;SDS011;16578;53.266;7.920;2023-01-24T12:35:01;22.08;;;15.15;;
29662;SDS011;16578;53.266;7.920;2023-01-24T12:45:25;24.70;;;17.50;;
29662;SDS011;16578;53.266;7.920;2023-01-24T12:48:01;21.63;;;16.42;;
29662;SDS011;16578;53.266;7.920;2023-01-24T12:50:40;24.70;;;17.70;;
29662;SDS011;16578;53.266;7.920;2023-01-24T12:53:32;22.42;;;16.05;;
29662;SDS011;16578;53.266;7.920;2023-01-24T12:56:13;22.67;;;16.60;;
29662;SDS011;16578;53.266;7.920;2023-01-24T12:58:45;22.13;;;16.60;;
29662;SDS011;16578;53.266;7.920;2023-01-24T13:09:03;18.48;;;13.95;;
29662;SDS011;16578;53.266;7.920;2023-01-24T13:11:30;20.85;;;16.40;;
29662;SDS011;16578;53.266;7.920;2023-01-24T13:14:05;24.63;;;18.63;;
29662;SDS011;16578;53.266;7.920;2023-01-24T13:16:52;25.77;;;18.67;;
29662;SDS011;16578;53.266;7.920;2023-01-24T13:25:05;26.23;;;19.85;;
29662;SDS011;16578;53.266;7.920;2023-01-24T13:32:40;27.27;;;21.40;;
29662;SDS011;16578;53.266;7.920;2023-01-24T13:35:22;24.73;;;19.80;;
29662;SDS011;16578;53.266;7.920;2023-01-24T13:38:34;25.23;;;19.80;;
29662;SDS011;16578;53.266;7.920;2023-01-24T13:41:02;27.55;;;20.02;;
29662;SDS011;16578;53.266;7.920;2023-01-24T13:51:48;28.63;;;20.13;;
29662;SDS011;16578;53.266;7.920;2023-01-24T13:54:18;24.50;;;18.73;;
29662;SDS011;16578;53.266;7.920;2023-01-24T13:59:42;22.73;;;17.23;;
29662;SDS011;16578;53.266;7.920;2023-01-24T14:02:25;26.02;;;19.48;;
29662;SDS011;16578;53.266;7.920;2023-01-24T14:04:52;25.50;;;19.38;;
29662;SDS011;16578;53.266;7.920;2023-01-24T14:07:18;23.50;;;18.85;;
29662;SDS011;16578;53.266;7.920;2023-01-24T14:09:56;23.05;;;18.80;;
29662;SDS011;16578;53.266;7.920;2023-01-24T14:12:24;23.80;;;19.38;;
29662;SDS011;16578;53.266;7.920;2023-01-24T14:15:00;25.25;;;18.85;;
29662;SDS011;16578;53.266;7.920;2023-01-24T14:22:52;26.33;;;19.52;;
29662;SDS011;16578;53.266;7.920;2023-01-24T14:28:01;28.67;;;20.08;;
29662;SDS011;16578;53.266;7.920;2023-01-24T14:30:37;26.85;;;20.50;;
29662;SDS011;16578;53.266;7.920;2023-01-24T14:33:27;25.08;;;19.60;;
29662;SDS011;16578;53.266;7.920;2023-01-24T14:38:38;25.75;;;18.70;;
29662;SDS011;16578;53.266;7.920;2023-01-24T14:41:04;27.27;;;18.90;;
29662;SDS011;16578;53.266;7.920;2023-01-24T14:43:34;26.85;;;19.77;;
29662;SDS011;16578;53.266;7.920;2023-01-24T14:46:09;24.00;;;17.80;;
29662;SDS011;16578;53.266;7.920;2023-01-24T14:48:36;27.50;;;18.73;;
29662;SDS011;16578;53.266;7.920;2023-01-24T14:51:03;24.15;;;16.95;;
29662;SDS011;16578;53.266;7.920;2023-01-24T14:53:32;24.25;;;17.55;;
29662;SDS011;16578;53.266;7.920;2023-01-24T14:56:02;25.98;;;17.98;;
29662;SDS011;16578;53.266;7.920;2023-01-24T14:58:34;23.83;;;16.67;;
29662;SDS011;16578;53.266;7.920;2023-01-24T15:01:00;22.23;;;16.67;;
29662;SDS011;16578;53.266;7.920;2023-01-24T15:03:30;23.80;;;18.25;;
29662;SDS011;16578;53.266;7.920;2023-01-24T15:08:28;24.60;;;17.33;;
29662;SDS011;16578;53.266;7.920;2023-01-24T15:11:01;21.58;;;17.23;;
29662;SDS011;16578;53.266;7.920;2023-01-24T15:13:34;22.70;;;16.33;;
29662;SDS011;16578;53.266;7.920;2023-01-24T15:16:06;23.65;;;16.70;;
29662;SDS011;16578;53.266;7.920;2023-01-24T15:18:43;22.05;;;15.55;;
29662;SDS011;16578;53.266;7.920;2023-01-24T15:21:18;24.80;;;17.05;;
29662;SDS011;16578;53.266;7.920;2023-01-24T15:23:52;25.02;;;16.20;;
29662;SDS011;16578;53.266;7.920;2023-01-24T15:26:23;21.20;;;15.00;;
29662;SDS011;16578;53.266;7.920;2023-01-24T15:28:49;21.70;;;15.07;;
29662;SDS011;16578;53.266;7.920;2023-01-24T15:31:22;22.48;;;16.10;;
29662;SDS011;16578;53.266;7.920;2023-01-24T15:33:54;21.52;;;15.60;;
29662;SDS011;16578;53.266;7.920;2023-01-24T15:38:56;20.75;;;15.27;;
29662;SDS011;16578;53.266;7.920;2023-01-24T15:41:25;19.95;;;14.32;;
29662;SDS011;16578;53.266;7.920;2023-01-24T15:44:12;21.15;;;14.90;;
29662;SDS011;16578;53.266;7.920;2023-01-24T15:46:42;19.88;;;13.98;;
29662;SDS011;16578;53.266;7.920;2023-01-24T15:54:32;19.63;;;14.27;;
29662;SDS011;16578;53.266;7.920;2023-01-24T15:56:59;20.48;;;15.02;;
29662;SDS011;16578;53.266;7.920;2023-01-24T15:59:27;18.30;;;12.55;;
29662;SDS011;16578;53.266;7.920;2023-01-24T16:01:54;18.58;;;12.65;;
29662;SDS011;16578;53.266;7.920;2023-01-24T16:04:20;15.05;;;10.85;;
29662;SDS011;16578;53.266;7.920;2023-01-24T16:06:47;21.77;;;13.93;;
29662;SDS011;16578;53.266;7.920;2023-01-24T16:09:13;17.65;;;12.73;;
29662;SDS011;16578;53.266;7.920;2023-01-24T16:11:39;18.42;;;13.13;;
29662;SDS011;16578;53.266;7.920;2023-01-24T16:14:16;18.63;;;12.15;;
29662;SDS011;16578;53.266;7.920;2023-01-24T16:16:45;20.58;;;14.35;;
29662;SDS011;16578;53.266;7.920;2023-01-24T16:19:15;20.73;;;13.45;;
29662;SDS011;16578;53.266;7.920;2023-01-24T16:21:42;21.27;;;13.68;;
29662;SDS011;16578;53.266;7.920;2023-01-24T16:24:08;17.10;;;12.80;;
29662;SDS011;16578;53.266;7.920;2023-01-24T16:26:34;19.40;;;13.65;;
29662;SDS011;16578;53.266;7.920;2023-01-24T16:29:02;17.15;;;12.88;;
29662;SDS011;16578;53.266;7.920;2023-01-24T16:31:28;19.10;;;13.25;;
29662;SDS011;16578;53.266;7.920;2023-01-24T16:33:53;18.70;;;13.13;;
29662;SDS011;16578;53.266;7.920;2023-01-24T16:36:19;16.92;;;12.55;;
29662;SDS011;16578;53.266;7.920;2023-01-24T16:38:45;18.00;;;12.20;;
29662;SDS011;16578;53.266;7.920;2023-01-24T16:41:11;19.88;;;12.77;;
29662;SDS011;16578;53.266;7.920;2023-01-24T16:43:38;16.75;;;11.75;;
29662;SDS011;16578;53.266;7.920;2023-01-24T16:46:13;18.38;;;12.88;;
29662;SDS011;16578;53.266;7.920;2023-01-24T16:48:42;17.02;;;11.85;;
29662;SDS011;16578;53.266;7.920;2023-01-24T16:51:11;15.02;;;11.05;;